Time;durP1;ratioP1;P1;durP2;ratioP2;P2;SDS_P1;SDS_P2;PMS_P1;PMS_P2;Temp;Humidity;BMP_temperature;BMP_pressure;BME280_temperature;BME280_humidity;BME280_pressure;Samples;Min_cycle;Max_cycle;Signal;HPM_P1;HPM_P2
2022/11/18 00:00:56;;;;;;;13.13;10.17;;;5.30;88.00;;;;;;4996176;28;20430;-60
2022/11/18 00:03:22;;;;;;;13.57;9.20;;;5.30;88.10;;;;;;5007271;28;20442;-60
2022/11/18 00:05:55;;;;;;;10.60;8.77;;;5.30;88.10;;;;;;5008526;28;20474;-60
2022/11/18 00:08:21;;;;;;;15.07;9.47;;;5.30;88.10;;;;;;5000026;28;20187;-60
2022/11/18 00:10:47;;;;;;;14.40;10.40;;;5.30;88.10;;;;;;4999614;28;20469;-60
2022/11/18 00:16:06;;;;;;;14.43;10.43;;;5.30;88.10;;;;;;5015281;28;20194;-60
2022/11/18 00:18:32;;;;;;;17.20;11.10;;;5.30;88.20;;;;;;5014954;28;20474;-60
2022/11/18 00:21:10;;;;;;;15.20;10.13;;;5.30;88.30;;;;;;5001651;28;20461;-60
2022/11/18 00:23:35;;;;;;;18.13;11.77;;;5.30;88.40;;;;;;5031798;28;20194;-60
2022/11/18 00:26:13;;;;;;;17.93;10.53;;;5.30;88.50;;;;;;5003848;28;20485;-60
2022/11/18 00:28:39;;;;;;;22.97;14.90;;;5.30;88.50;;;;;;5012177;28;20262;-60
2022/11/18 00:31:11;;;;;;;20.37;13.93;;;5.30;88.80;;;;;;5015298;28;20492;-60
2022/11/18 00:33:37;;;;;;;18.60;12.20;;;5.40;89.10;;;;;;5016190;28;20465;-60
2022/11/18 00:36:05;;;;;;;21.17;14.27;;;5.40;89.10;;;;;;4998619;28;20455;-60
2022/11/18 00:38:30;;;;;;;25.87;14.60;;;5.50;89.20;;;;;;5031495;28;20426;-60
2022/11/18 00:41:10;;;;;;;21.70;13.93;;;5.60;89.20;;;;;;5015316;28;20461;-60
2022/11/18 00:43:36;;;;;;;20.80;13.33;;;5.60;89.30;;;;;;5031767;28;20277;-60
2022/11/18 00:46:02;;;;;;;23.87;14.50;;;5.70;89.40;;;;;;5014648;28;20492;-60
2022/11/18 00:48:28;;;;;;;20.67;14.37;;;5.70;89.40;;;;;;5014778;28;20434;-60
2022/11/18 00:51:05;;;;;;;20.40;13.13;;;5.80;89.50;;;;;;5015419;28;20553;-60
2022/11/18 00:53:30;;;;;;;17.67;12.47;;;5.80;89.40;;;;;;5014585;28;20314;-60
2022/11/18 00:55:56;;;;;;;18.60;12.10;;;5.80;89.30;;;;;;4998817;28;20532;-60
2022/11/18 00:58:22;;;;;;;16.40;12.23;;;5.90;89.20;;;;;;4998319;28;20286;-60
2022/11/18 01:00:50;;;;;;;18.57;12.77;;;5.90;89.20;;;;;;5014956;28;20202;-60
2022/11/18 01:03:16;;;;;;;15.83;11.30;;;5.90;89.00;;;;;;5030855;28;20270;-60
2022/11/18 01:05:42;;;;;;;16.43;11.17;;;5.80;88.60;;;;;;4998296;28;20607;-60
2022/11/18 01:08:09;;;;;;;19.23;12.73;;;5.80;88.70;;;;;;4995149;28;20530;-60
2022/11/18 01:10:36;;;;;;;20.90;14.40;;;5.80;88.70;;;;;;5026798;28;20191;-60
2022/11/18 01:13:21;;;;;;;22.07;12.50;;;5.90;88.80;;;;;;5014762;28;20524;-60
2022/11/18 01:15:49;;;;;;;14.57;10.17;;;5.90;88.80;;;;;;5014441;28;20430;-60
2022/11/18 01:18:16;;;;;;;14.93;9.97;;;5.90;88.90;;;;;;5030055;28;20445;-60
2022/11/18 01:20:43;;;;;;;15.47;11.67;;;6.00;88.90;;;;;;5014344;28;20488;-60
2022/11/18 01:23:09;;;;;;;14.80;9.77;;;6.00;88.90;;;;;;5014036;28;20975;-60
2022/11/18 01:25:36;;;;;;;14.60;11.07;;;6.10;88.90;;;;;;4998073;28;20473;-60
2022/11/18 01:28:02;;;;;;;14.57;10.67;;;6.10;88.90;;;;;;5014250;28;20179;-60
2022/11/18 01:30:28;;;;;;;19.07;12.70;;;6.10;88.90;;;;;;5011393;28;20489;-60
2022/11/18 01:32:54;;;;;;;17.67;12.23;;;6.10;88.90;;;;;;5013959;28;20521;-60
2022/11/18 01:35:20;;;;;;;16.10;11.40;;;6.20;88.90;;;;;;5014012;28;20195;-60
2022/11/18 01:37:45;;;;;;;19.30;13.20;;;6.20;88.90;;;;;;4993946;28;20335;-60
2022/11/18 01:40:11;;;;;;;17.00;11.10;;;6.20;88.90;;;;;;4988259;28;20213;-60
2022/11/18 01:42:37;;;;;;;20.17;11.27;;;6.20;88.90;;;;;;5010342;28;20220;-60
2022/11/18 01:45:08;;;;;;;20.93;14.27;;;6.30;88.90;;;;;;4993355;28;20214;-60
2022/11/18 01:47:50;;;;;;;19.03;12.30;;;6.30;88.90;;;;;;5012223;28;20187;-60
2022/11/18 01:50:18;;;;;;;18.27;11.77;;;6.30;88.90;;;;;;5013747;28;20518;-60
2022/11/18 01:52:45;;;;;;;18.37;10.50;;;6.30;88.90;;;;;;5035486;28;20434;-60
2022/11/18 01:55:20;;;;;;;16.07;10.90;;;6.30;88.80;;;;;;5008978;28;20470;-60
2022/11/18 01:57:48;;;;;;;16.03;10.37;;;6.40;88.80;;;;;;5030039;28;20449;-60
2022/11/18 02:00:14;;;;;;;15.00;10.60;;;6.40;88.60;;;;;;4997137;28;20474;-60
2022/11/18 02:02:40;;;;;;;18.17;10.93;;;6.40;88.60;;;;;;4997023;28;20478;-60
2022/11/18 02:05:09;;;;;;;14.30;9.77;;;6.40;88.60;;;;;;4994112;28;20745;-60
2022/11/18 02:07:39;;;;;;;19.23;11.37;;;6.40;88.60;;;;;;4996977;28;20438;-60
2022/11/18 02:10:06;;;;;;;16.77;11.93;;;6.40;88.60;;;;;;5013164;28;20522;-60
2022/11/18 02:12:32;;;;;;;18.97;11.90;;;6.40;88.60;;;;;;5013449;28;20423;-60
2022/11/18 02:14:59;;;;;;;18.50;12.40;;;6.40;88.60;;;;;;4994248;28;20438;-60
2022/11/18 02:17:43;;;;;;;20.00;12.33;;;6.40;88.60;;;;;;4996716;28;20462;-60
2022/11/18 02:20:09;;;;;;;18.70;12.30;;;6.40;88.60;;;;;;5013039;28;20616;-60
2022/11/18 02:23:08;;;;;;;19.23;11.23;;;6.40;88.50;;;;;;5007210;28;20506;-60
2022/11/18 02:26:01;;;;;;;14.93;11.10;;;6.50;88.50;;;;;;5027316;28;20239;-60
2022/11/18 02:28:49;;;;;;;24.60;13.23;;;6.40;88.50;;;;;;5020751;28;20461;-60
2022/11/18 02:31:25;;;;;;;20.63;13.23;;;6.40;88.60;;;;;;5013797;28;20542;-60
2022/11/18 02:33:54;;;;;;;21.70;13.27;;;6.40;88.60;;;;;;5009215;28;20519;-60
2022/11/18 02:36:35;;;;;;;20.70;12.60;;;6.50;88.70;;;;;;5013504;28;20430;-60
2022/11/18 02:39:12;;;;;;;20.47;12.20;;;6.50;88.70;;;;;;5013205;28;20440;-60
2022/11/18 02:41:41;;;;;;;19.87;12.60;;;6.50;88.70;;;;;;5013078;28;20433;-60
2022/11/18 02:44:12;;;;;;;28.67;13.90;;;6.60;88.70;;;;;;5005316;28;20435;-60
2022/11/18 02:46:39;;;;;;;22.43;14.40;;;6.50;88.70;;;;;;5013268;28;20821;-60
2022/11/18 02:49:21;;;;;;;20.60;12.03;;;6.60;88.60;;;;;;5000822;28;20430;-60
2022/11/18 02:51:49;;;;;;;22.87;13.30;;;6.60;88.60;;;;;;5017361;28;20422;-60
2022/11/18 02:54:17;;;;;;;23.17;14.57;;;6.60;88.70;;;;;;5001020;28;20438;-60
2022/11/18 02:56:45;;;;;;;23.93;13.47;;;6.60;88.70;;;;;;5033031;28;20449;-60
2022/11/18 02:59:10;;;;;;;19.10;13.27;;;6.60;88.70;;;;;;5016541;28;20461;-60
2022/11/18 03:01:36;;;;;;;27.93;15.07;;;6.60;88.70;;;;;;5017303;28;20520;-60
2022/11/18 03:04:02;;;;;;;23.43;15.57;;;6.50;88.70;;;;;;5016579;28;20206;-60
2022/11/18 03:06:31;;;;;;;29.33;14.93;;;6.60;88.80;;;;;;5033535;28;20207;-60
2022/11/18 03:09:05;;;;;;;25.43;14.23;;;6.60;88.90;;;;;;5033150;28;20192;-60
2022/11/18 03:12:03;;;;;;;26.47;15.07;;;6.50;88.80;;;;;;5015642;28;20414;-60
2022/11/18 03:14:42;;;;;;;22.20;14.13;;;6.50;88.80;;;;;;5002880;28;20433;-60
2022/11/18 03:17:11;;;;;;;27.93;15.23;;;6.40;88.80;;;;;;5015680;28;20433;-60
2022/11/18 03:19:46;;;;;;;23.33;13.67;;;6.40;89.00;;;;;;5028734;28;20469;-60
2022/11/18 03:22:25;;;;;;;21.67;13.90;;;6.40;89.00;;;;;;5017064;28;20433;-60
2022/11/18 03:25:06;;;;;;;19.13;12.20;;;6.30;88.90;;;;;;5029446;28;20504;-60
2022/11/18 03:27:58;;;;;;;19.90;11.07;;;6.20;89.20;;;;;;5031090;28;20430;-60
2022/11/18 03:30:24;;;;;;;17.97;12.40;;;6.20;88.90;;;;;;5015000;28;20430;-60
2022/11/18 03:33:04;;;;;;;18.93;11.57;;;6.10;89.10;;;;;;5013541;28;20430;-60
2022/11/18 03:35:34;;;;;;;19.33;11.47;;;6.10;89.10;;;;;;5016259;28;20527;-60
2022/11/18 03:38:08;;;;;;;19.80;11.57;;;6.10;89.10;;;;;;5015985;28;20443;-60
2022/11/18 03:40:38;;;;;;;17.87;10.80;;;6.10;89.00;;;;;;5012852;28;20924;-60
2022/11/18 03:43:17;;;;;;;19.13;10.83;;;6.20;89.00;;;;;;5016148;28;20974;-60
2022/11/18 03:45:49;;;;;;;22.10;12.60;;;6.20;89.00;;;;;;5016234;28;20473;-60
2022/11/18 03:48:25;;;;;;;23.17;12.87;;;6.20;89.10;;;;;;5032368;28;20505;-60
2022/11/18 03:51:00;;;;;;;21.07;11.43;;;6.30;89.10;;;;;;5015575;28;20423;-60
2022/11/18 03:53:30;;;;;;;18.07;10.97;;;6.30;89.00;;;;;;5038443;28;20936;-60
2022/11/18 03:56:05;;;;;;;16.07;10.27;;;6.30;88.90;;;;;;5031472;28;20465;-60
2022/11/18 03:58:42;;;;;;;15.00;10.53;;;6.30;88.90;;;;;;5015566;28;20449;-60
2022/11/18 04:01:16;;;;;;;16.57;10.50;;;6.20;88.70;;;;;;5022169;28;20426;-60
2022/11/18 04:03:43;;;;;;;17.17;10.33;;;6.30;88.70;;;;;;5038822;28;20505;-60
2022/11/18 04:06:21;;;;;;;16.47;10.90;;;6.20;88.70;;;;;;5032177;28;20552;-60
2022/11/18 04:08:54;;;;;;;14.67;10.10;;;6.30;88.60;;;;;;5012353;28;20453;-60
2022/11/18 04:14:15;;;;;;;16.50;10.43;;;6.20;88.30;;;;;;5016472;28;20437;-60
2022/11/18 04:16:42;;;;;;;11.87;8.93;;;6.20;88.30;;;;;;4997771;28;20430;-60
2022/11/18 04:19:08;;;;;;;13.63;8.47;;;6.20;88.20;;;;;;5048207;28;20493;-60
2022/11/18 04:21:34;;;;;;;13.53;9.33;;;6.20;88.20;;;;;;5005321;28;20925;-60
2022/11/18 04:24:00;;;;;;;16.17;10.77;;;6.10;88.10;;;;;;5015776;28;20516;-60
2022/11/18 04:26:25;;;;;;;14.93;10.20;;;6.10;88.20;;;;;;5003302;28;20225;-60
2022/11/18 04:28:51;;;;;;;15.03;10.20;;;6.20;88.30;;;;;;4998766;28;20269;-60
2022/11/18 04:31:17;;;;;;;19.03;12.40;;;6.10;88.30;;;;;;4998985;28;20199;-60
2022/11/18 04:33:42;;;;;;;19.20;11.60;;;6.10;88.30;;;;;;5015033;28;20196;-60
2022/11/18 04:36:08;;;;;;;16.47;10.47;;;6.10;88.30;;;;;;5015251;28;20226;-60
2022/11/18 04:38:34;;;;;;;17.33;11.60;;;6.10;88.30;;;;;;5015275;28;20230;-60
2022/11/18 04:40:59;;;;;;;18.67;11.80;;;6.10;88.30;;;;;;5014549;28;20203;-60
2022/11/18 04:43:25;;;;;;;16.77;11.80;;;6.10;88.40;;;;;;5014294;28;20199;-60
2022/11/18 04:45:51;;;;;;;18.53;11.07;;;6.00;88.40;;;;;;4998357;28;20258;-60
2022/11/18 04:48:18;;;;;;;16.10;11.40;;;6.00;88.40;;;;;;5031317;28;20230;-60
2022/11/18 04:50:43;;;;;;;15.07;10.67;;;6.00;88.50;;;;;;5037802;28;20195;-60
2022/11/18 04:53:09;;;;;;;16.90;10.57;;;6.00;88.60;;;;;;5014548;28;20431;-60
2022/11/18 04:55:36;;;;;;;14.80;9.90;;;6.00;88.60;;;;;;5014720;28;20286;-60
2022/11/18 04:58:02;;;;;;;13.10;9.57;;;5.90;88.60;;;;;;5014573;28;20711;-60
2022/11/18 05:00:27;;;;;;;12.17;8.73;;;5.90;88.60;;;;;;5047328;28;20449;-60
2022/11/18 05:02:53;;;;;;;12.40;8.30;;;5.90;88.60;;;;;;4996376;28;20443;-59
2022/11/18 05:05:19;;;;;;;11.90;8.10;;;5.80;88.50;;;;;;4996659;28;20226;-60
2022/11/18 05:07:44;;;;;;;12.63;8.13;;;5.80;88.50;;;;;;5002322;28;20193;-60
2022/11/18 05:10:10;;;;;;;11.50;8.03;;;5.80;88.40;;;;;;4999024;28;20195;-60
2022/11/18 05:12:48;;;;;;;11.03;8.47;;;5.80;88.40;;;;;;4993310;28;20193;-60
2022/11/18 05:15:19;;;;;;;11.37;8.50;;;5.70;88.40;;;;;;5004974;28;20210;-60
2022/11/18 05:17:46;;;;;;;12.27;9.33;;;5.70;88.40;;;;;;5014412;28;20917;-59
2022/11/18 05:20:12;;;;;;;12.37;8.53;;;5.70;88.40;;;;;;5046243;28;21004;-59
2022/11/18 05:22:39;;;;;;;12.90;8.83;;;5.70;88.50;;;;;;5014350;28;20436;-60
2022/11/18 05:25:05;;;;;;;10.17;7.27;;;5.60;88.50;;;;;;5013176;28;20470;-60
2022/11/18 05:27:31;;;;;;;10.53;7.40;;;5.70;88.60;;;;;;5033915;28;20446;-60
2022/11/18 05:29:57;;;;;;;11.67;9.27;;;5.70;88.70;;;;;;5000799;28;20442;-60
2022/11/18 05:32:22;;;;;;;10.73;8.03;;;5.80;88.70;;;;;;5011400;28;20222;-60
2022/11/18 05:34:48;;;;;;;12.77;8.43;;;5.80;88.70;;;;;;4998040;28;20203;-60
2022/11/18 05:37:14;;;;;;;10.90;8.03;;;5.80;88.60;;;;;;5031343;28;20233;-61
2022/11/18 05:39:40;;;;;;;10.63;8.10;;;5.80;88.70;;;;;;5013932;28;20200;-61
2022/11/18 05:44:50;;;;;;;11.33;8.03;;;5.90;88.60;;;;;;5028028;28;20221;-61
2022/11/18 05:47:17;;;;;;;15.43;9.53;;;6.00;88.60;;;;;;5040482;28;20521;-61
2022/11/18 05:49:42;;;;;;;12.90;8.87;;;6.00;88.50;;;;;;5013395;28;20426;-61
2022/11/18 05:52:08;;;;;;;11.27;7.93;;;6.00;88.50;;;;;;5022358;28;20499;-61
2022/11/18 05:54:37;;;;;;;10.87;7.60;;;6.00;88.50;;;;;;5013835;28;20187;-61
2022/11/18 05:57:03;;;;;;;11.13;8.00;;;6.10;88.40;;;;;;4997492;28;20188;-61
2022/11/18 05:59:29;;;;;;;11.73;8.73;;;6.10;88.30;;;;;;4998175;28;20465;-61
2022/11/18 06:02:06;;;;;;;10.87;8.57;;;6.10;88.10;;;;;;4993848;28;20195;-61
2022/11/18 06:04:40;;;;;;;12.63;8.50;;;6.00;88.00;;;;;;5013181;28;20829;-61
2022/11/18 06:07:19;;;;;;;10.27;8.63;;;6.00;88.20;;;;;;5003393;28;20464;-61
2022/11/18 06:09:49;;;;;;;11.00;8.03;;;6.00;88.20;;;;;;5013224;28;20430;-61
2022/11/18 06:12:18;;;;;;;11.93;7.97;;;6.00;88.20;;;;;;4999214;28;20466;-61
2022/11/18 06:14:49;;;;;;;10.87;8.17;;;6.10;88.20;;;;;;5014074;28;20427;-61
2022/11/18 06:17:23;;;;;;;9.97;8.43;;;6.10;88.10;;;;;;5013533;28;20792;-61
2022/11/18 06:19:48;;;;;;;10.20;8.57;;;6.10;88.10;;;;;;5029742;28;20466;-61
2022/11/18 06:22:14;;;;;;;15.50;9.80;;;6.10;88.00;;;;;;4995500;28;20451;-61
2022/11/18 06:24:42;;;;;;;9.83;8.27;;;6.10;88.00;;;;;;4996871;28;20196;-61
2022/11/18 06:27:08;;;;;;;14.00;8.97;;;6.20;88.00;;;;;;5012851;28;20190;-61
2022/11/18 06:29:34;;;;;;;10.37;7.90;;;6.20;88.00;;;;;;5023903;28;20443;-61
2022/11/18 06:32:00;;;;;;;10.70;8.07;;;6.20;88.00;;;;;;5012950;28;20443;-61
2022/11/18 06:34:26;;;;;;;15.10;9.80;;;6.20;88.00;;;;;;5001048;28;20191;-61
2022/11/18 06:36:52;;;;;;;15.33;10.53;;;6.30;88.00;;;;;;5012933;28;20277;-61
2022/11/18 06:39:17;;;;;;;13.17;10.07;;;6.30;88.00;;;;;;4997076;28;20473;-61
2022/11/18 06:41:43;;;;;;;12.43;9.17;;;6.30;88.00;;;;;;5005469;28;20271;-61
2022/11/18 06:44:11;;;;;;;11.37;9.00;;;6.30;87.90;;;;;;5013874;28;20191;-61
2022/11/18 06:46:55;;;;;;;13.33;9.43;;;6.30;87.80;;;;;;5010058;28;20366;-61
2022/11/18 06:49:21;;;;;;;13.63;9.40;;;6.30;87.80;;;;;;5011936;28;20921;-61
2022/11/18 06:51:47;;;;;;;12.73;9.30;;;6.40;87.60;;;;;;4994976;28;20434;-61
2022/11/18 06:54:12;;;;;;;14.60;10.37;;;6.40;87.50;;;;;;4998372;28;20502;-61
2022/11/18 06:56:38;;;;;;;13.23;9.63;;;6.40;87.50;;;;;;4995202;28;20204;-61
2022/11/18 06:59:04;;;;;;;14.47;10.33;;;6.30;87.50;;;;;;5033981;28;20202;-61
2022/11/18 07:01:33;;;;;;;14.57;9.87;;;6.30;87.80;;;;;;5010197;28;20191;-61
2022/11/18 07:03:59;;;;;;;11.93;9.13;;;6.30;87.80;;;;;;5027082;28;20184;-61
2022/11/18 07:06:27;;;;;;;11.97;9.70;;;6.40;87.80;;;;;;4993790;28;20478;-61
2022/11/18 07:08:53;;;;;;;12.43;9.57;;;6.40;87.80;;;;;;5022688;28;20430;-61
2022/11/18 07:11:22;;;;;;;12.77;9.00;;;6.50;87.80;;;;;;5009993;28;20426;-61
2022/11/18 07:13:48;;;;;;;12.10;9.60;;;6.50;87.70;;;;;;5010391;28;20553;-61
2022/11/18 07:16:20;;;;;;;12.93;8.77;;;6.60;87.70;;;;;;4991159;28;20526;-61
2022/11/18 07:18:47;;;;;;;11.63;9.53;;;6.60;87.80;;;;;;5011283;28;20234;-61
2022/11/18 07:21:24;;;;;;;15.07;10.83;;;6.60;87.90;;;;;;5011608;28;20448;-61
2022/11/18 07:23:50;;;;;;;13.73;10.03;;;6.70;87.90;;;;;;5011178;28;20426;-61
2022/11/18 07:26:16;;;;;;;12.13;8.73;;;6.70;87.80;;;;;;5011338;28;20469;-61
2022/11/18 07:28:43;;;;;;;14.20;11.00;;;6.80;87.80;;;;;;4995461;28;20192;-61
2022/11/18 07:31:11;;;;;;;15.27;10.17;;;6.80;87.60;;;;;;5009845;28;20470;-61
2022/11/18 07:33:37;;;;;;;14.80;10.13;;;6.80;87.70;;;;;;5029210;28;20436;-61
2022/11/18 07:36:11;;;;;;;12.30;9.17;;;6.90;87.60;;;;;;5014079;28;20526;-61
2022/11/18 07:38:37;;;;;;;10.83;8.90;;;6.90;87.50;;;;;;5015238;28;20446;-61
2022/11/18 07:41:15;;;;;;;12.10;9.00;;;6.90;87.30;;;;;;4998760;28;20437;-61
2022/11/18 07:43:42;;;;;;;11.70;9.17;;;7.00;87.30;;;;;;5010817;28;20196;-61
2022/11/18 07:46:23;;;;;;;14.33;9.40;;;7.00;87.20;;;;;;5014956;28;20482;-61
2022/11/18 07:48:51;;;;;;;11.40;9.27;;;7.00;87.20;;;;;;5014644;28;20453;-61
2022/11/18 07:51:19;;;;;;;9.33;7.63;;;7.10;87.10;;;;;;5013817;28;20442;-61
2022/11/18 07:53:45;;;;;;;11.10;8.70;;;7.10;87.10;;;;;;5035965;28;20434;-61
2022/11/18 07:56:11;;;;;;;10.40;8.27;;;7.10;87.00;;;;;;5040822;28;20444;-61
2022/11/18 07:58:38;;;;;;;8.87;7.77;;;7.20;86.90;;;;;;5014964;28;20195;-62
2022/11/18 08:01:09;;;;;;;9.13;7.83;;;7.20;86.80;;;;;;5013625;28;20437;-61
2022/11/18 08:03:35;;;;;;;9.47;8.10;;;7.30;86.70;;;;;;5041831;28;20434;-61
2022/11/18 08:06:02;;;;;;;9.20;7.47;;;7.30;86.50;;;;;;5013177;28;20462;-61
2022/11/18 08:08:28;;;;;;;9.37;7.63;;;7.30;86.20;;;;;;4994927;28;20221;-61
2022/11/18 08:10:58;;;;;;;9.40;7.50;;;7.30;86.00;;;;;;5014693;28;20546;-61
2022/11/18 08:13:24;;;;;;;10.00;8.13;;;7.30;86.00;;;;;;5014381;28;20191;-61
2022/11/18 08:15:50;;;;;;;10.70;8.10;;;7.30;86.00;;;;;;5029825;28;20909;-61
2022/11/18 08:18:16;;;;;;;10.20;8.27;;;7.40;85.50;;;;;;5000021;28;20461;-61
2022/11/18 08:20:44;;;;;;;8.67;7.50;;;7.40;85.40;;;;;;5013040;28;20237;-61
2022/11/18 08:23:10;;;;;;;13.47;9.20;;;7.40;85.50;;;;;;5012482;28;20787;-61
2022/11/18 08:25:36;;;;;;;10.57;7.80;;;7.40;85.40;;;;;;5001068;28;20486;-61
2022/11/18 08:28:02;;;;;;;11.23;7.93;;;7.40;85.40;;;;;;5032737;28;20427;-61
2022/11/18 08:30:27;;;;;;;9.67;7.63;;;7.40;85.30;;;;;;5004609;28;20195;-61
2022/11/18 08:32:53;;;;;;;11.17;8.17;;;7.40;85.30;;;;;;4997564;28;20196;-61
2022/11/18 08:35:19;;;;;;;8.80;7.27;;;7.40;85.10;;;;;;5013228;28;20196;-61
2022/11/18 08:37:45;;;;;;;10.27;8.00;;;7.40;85.00;;;;;;4996757;28;20952;-61
2022/11/18 08:40:11;;;;;;;8.80;7.43;;;7.40;85.00;;;;;;4999122;28;20222;-61
2022/11/18 08:42:37;;;;;;;9.00;6.97;;;7.40;84.70;;;;;;4998162;28;20278;-61
2022/11/18 08:45:07;;;;;;;9.77;7.53;;;7.40;84.60;;;;;;5012682;28;20474;-61
2022/11/18 08:47:33;;;;;;;9.83;7.53;;;7.40;84.60;;;;;;5030238;28;20431;-61
2022/11/18 08:49:58;;;;;;;7.90;7.00;;;7.30;84.40;;;;;;4993210;28;20442;-61
2022/11/18 08:52:24;;;;;;;10.10;8.47;;;7.40;84.50;;;;;;5021921;28;20438;-61
2022/11/18 08:54:50;;;;;;;11.87;8.73;;;7.40;84.60;;;;;;5012899;28;20199;-61
2022/11/18 08:57:16;;;;;;;7.50;6.57;;;7.40;84.50;;;;;;4995808;28;20192;-61
2022/11/18 08:59:41;;;;;;;9.23;7.60;;;7.40;84.60;;;;;;5013052;28;20195;-61
2022/11/18 09:02:19;;;;;;;7.93;6.73;;;7.40;84.70;;;;;;4993561;28;20227;-61
2022/11/18 09:04:51;;;;;;;10.23;7.50;;;7.40;84.70;;;;;;5013070;28;20282;-61
2022/11/18 09:07:21;;;;;;;8.53;6.87;;;7.40;84.60;;;;;;5032859;28;20431;-61
2022/11/18 09:09:46;;;;;;;8.37;7.30;;;7.40;84.60;;;;;;5012164;28;20481;-61
2022/11/18 09:12:16;;;;;;;8.10;7.00;;;7.40;84.40;;;;;;4995385;28;20430;-61
2022/11/18 09:14:43;;;;;;;10.13;8.10;;;7.40;84.70;;;;;;4983083;28;20196;-61
2022/11/18 09:17:08;;;;;;;9.47;8.13;;;7.40;84.90;;;;;;5012940;28;20434;-61
2022/11/18 09:19:34;;;;;;;9.30;7.67;;;7.40;84.90;;;;;;5016799;28;20513;-61
2022/11/18 09:22:00;;;;;;;11.67;8.07;;;7.50;84.90;;;;;;4994155;28;20195;-61
2022/11/18 09:24:26;;;;;;;9.10;7.37;;;7.50;85.00;;;;;;5029237;28;20195;-61
2022/11/18 09:26:52;;;;;;;11.07;8.57;;;7.50;84.90;;;;;;5013367;28;20242;-61
2022/11/18 09:29:19;;;;;;;8.93;7.50;;;7.50;85.20;;;;;;4996100;28;20215;-61
2022/11/18 09:31:44;;;;;;;11.97;9.20;;;7.60;85.30;;;;;;5006821;28;20434;-61
2022/11/18 09:34:10;;;;;;;11.87;8.87;;;7.60;85.70;;;;;;5005368;28;20876;-61
2022/11/18 09:36:36;;;;;;;11.73;8.33;;;7.60;86.20;;;;;;4998909;28;20347;-61
2022/11/18 09:39:02;;;;;;;10.73;8.47;;;7.50;86.40;;;;;;5029505;28;20234;-61
2022/11/18 09:41:35;;;;;;;11.53;8.80;;;7.60;86.60;;;;;;5004380;28;20202;-61
2022/11/18 09:44:22;;;;;;;9.33;7.83;;;7.50;86.70;;;;;;5029228;28;20196;-61
2022/11/18 09:47:08;;;;;;;8.87;7.47;;;7.50;87.40;;;;;;5017965;28;20466;-61
2022/11/18 09:49:39;;;;;;;10.77;8.47;;;7.50;87.70;;;;;;5011081;28;20533;-61
2022/11/18 09:52:15;;;;;;;14.47;9.73;;;7.50;88.10;;;;;;5011659;28;20454;-61
2022/11/18 09:54:41;;;;;;;12.30;9.33;;;7.50;88.20;;;;;;5012487;28;20503;-61
2022/11/18 09:57:22;;;;;;;14.27;10.03;;;7.40;88.40;;;;;;4999313;28;21004;-61
2022/11/18 09:59:48;;;;;;;14.17;10.87;;;7.40;88.70;;;;;;5011515;28;20658;-61
2022/11/18 10:02:57;;;;;;;12.60;9.40;;;7.40;89.40;;;;;;5020862;28;20435;-61
2022/11/18 10:05:39;;;;;;;16.20;10.10;;;7.40;89.60;;;;;;5028842;28;20211;-61
2022/11/18 10:08:20;;;;;;;11.73;9.33;;;7.40;89.90;;;;;;5027255;28;20449;-61
2022/11/18 10:11:12;;;;;;;18.60;11.67;;;7.40;90.40;;;;;;5026273;28;20794;-61
2022/11/18 10:14:11;;;;;;;17.83;10.87;;;7.40;90.50;;;;;;5011888;28;20429;-61
2022/11/18 10:17:06;;;;;;;16.07;11.93;;;7.40;90.70;;;;;;5019342;28;20422;-61
2022/11/18 10:19:56;;;;;;;16.47;10.93;;;7.40;91.00;;;;;;5011319;28;20504;-62
2022/11/18 10:22:36;;;;;;;17.83;12.23;;;7.40;91.30;;;;;;5027621;28;20427;-61
2022/11/18 10:25:02;;;;;;;19.30;13.10;;;7.50;91.60;;;;;;5011559;28;20557;-61
2022/11/18 10:27:40;;;;;;;16.47;12.23;;;7.50;92.00;;;;;;4987042;28;20431;-61
2022/11/18 10:30:11;;;;;;;18.00;13.03;;;7.50;92.00;;;;;;5040501;28;20446;-61
2022/11/18 10:32:53;;;;;;;16.50;12.47;;;7.50;92.20;;;;;;5031971;28;20500;-61
2022/11/18 10:35:34;;;;;;;18.40;12.23;;;7.50;92.10;;;;;;5010919;28;20422;-61
2022/11/18 10:38:22;;;;;;;18.20;12.27;;;7.50;92.20;;;;;;5027006;28;20454;-61
2022/11/18 10:41:04;;;;;;;16.33;11.40;;;7.60;92.50;;;;;;5010625;28;20441;-61
2022/11/18 10:43:51;;;;;;;18.03;12.50;;;7.80;92.80;;;;;;5028185;28;20437;-61
2022/11/18 10:46:28;;;;;;;16.30;11.97;;;7.80;92.80;;;;;;5011136;28;20473;-61
2022/11/18 10:49:09;;;;;;;17.07;11.90;;;7.80;93.00;;;;;;5026193;28;20541;-61
2022/11/18 10:51:46;;;;;;;14.83;11.13;;;7.90;93.00;;;;;;5010245;28;20434;-61
2022/11/18 10:54:20;;;;;;;15.97;11.77;;;7.90;93.20;;;;;;5010502;28;20437;-61
2022/11/18 10:56:55;;;;;;;17.17;12.50;;;8.00;93.30;;;;;;5010286;28;20457;-62
2022/11/18 10:59:52;;;;;;;15.53;11.97;;;8.00;93.20;;;;;;5010828;28;20481;-60
2022/11/18 11:02:23;;;;;;;14.17;11.87;;;8.00;93.20;;;;;;5032333;28;20437;-60
2022/11/18 11:04:50;;;;;;;17.40;12.00;;;8.00;93.20;;;;;;5026345;28;20442;-61
2022/11/18 11:07:31;;;;;;;15.57;11.60;;;8.00;93.20;;;;;;5028423;28;20440;-62
2022/11/18 11:10:12;;;;;;;14.80;10.90;;;7.90;92.90;;;;;;5018554;28;20438;-62
2022/11/18 11:12:46;;;;;;;14.77;10.83;;;8.00;93.20;;;;;;5029296;28;20442;-62
2022/11/18 11:15:20;;;;;;;15.60;11.83;;;8.00;93.20;;;;;;5030465;28;20441;-62
2022/11/18 11:18:40;;;;;;;14.00;11.90;;;8.00;93.30;;;;;;5013229;28;20470;-61
2022/11/18 11:20:41;;;;;;;17.47;11.97;;;8.00;93.30;;;;;;5015133;28;20627;-63
2022/11/18 11:23:12;;;;;;;19.37;13.33;;;8.10;93.50;;;;;;5017111;28;20442;-61
2022/11/18 11:25:51;;;;;;;15.80;12.07;;;8.10;93.50;;;;;;5030477;28;20462;-60
2022/11/18 11:28:35;;;;;;;17.63;12.63;;;8.20;93.60;;;;;;5038730;28;20430;-60
2022/11/18 11:31:28;;;;;;;14.60;11.67;;;8.20;93.60;;;;;;5013547;28;20436;-61
2022/11/18 11:33:54;;;;;;;16.40;12.03;;;8.20;93.40;;;;;;5013431;28;20445;-61
2022/11/18 11:36:41;;;;;;;16.43;12.30;;;8.20;93.50;;;;;;5022002;28;20434;-61
2022/11/18 11:39:26;;;;;;;17.37;12.73;;;8.20;93.60;;;;;;5008706;28;20179;-61
2022/11/18 11:42:10;;;;;;;18.07;11.80;;;8.20;93.30;;;;;;5013187;28;20433;-60
2022/11/18 11:44:42;;;;;;;16.77;12.07;;;8.20;93.40;;;;;;5030433;28;20437;-61
2022/11/18 11:47:45;;;;;;;16.87;11.77;;;8.20;93.30;;;;;;5014152;28;20423;-60
2022/11/18 11:50:23;;;;;;;16.97;12.70;;;8.30;93.50;;;;;;5011466;28;20510;-61
2022/11/18 11:53:22;;;;;;;21.60;14.10;;;8.20;93.10;;;;;;5032903;28;20936;-61
2022/11/18 11:55:58;;;;;;;16.93;12.13;;;8.30;93.30;;;;;;5037749;28;20419;-61
2022/11/18 11:58:46;;;;;;;19.80;12.97;;;8.20;93.00;;;;;;5014150;28;20421;-61
2022/11/18 12:01:21;;;;;;;17.33;13.23;;;8.30;93.20;;;;;;5026985;28;20466;-61
2022/11/18 12:03:52;;;;;;;19.60;13.73;;;8.30;93.30;;;;;;5030710;28;20410;-61
2022/11/18 12:06:18;;;;;;;20.50;14.23;;;8.30;93.30;;;;;;5030099;28;20945;-61
2022/11/18 12:09:06;;;;;;;18.90;14.43;;;8.30;93.40;;;;;;5004089;28;20502;-61
2022/11/18 12:11:48;;;;;;;18.33;13.60;;;8.30;93.50;;;;;;5006842;28;20188;-61
2022/11/18 12:14:39;;;;;;;16.17;12.77;;;8.30;93.40;;;;;;5013343;28;20648;-61
2022/11/18 12:17:32;;;;;;;15.87;12.33;;;8.30;93.50;;;;;;5012802;28;20438;-62
2022/11/18 12:19:58;;;;;;;13.93;11.50;;;8.40;93.60;;;;;;5001227;28;20482;-59
2022/11/18 12:23:02;;;;;;;16.30;11.83;;;8.40;93.70;;;;;;5012754;28;20457;-60
2022/11/18 12:26:10;;;;;;;19.60;12.97;;;8.40;93.60;;;;;;5028489;28;20216;-59
2022/11/18 12:28:36;;;;;;;16.37;12.80;;;8.40;93.60;;;;;;5017979;28;20457;-60
2022/11/18 12:31:16;;;;;;;15.10;12.33;;;8.40;93.70;;;;;;5028954;28;20430;-59
2022/11/18 12:33:56;;;;;;;18.77;13.90;;;8.40;93.70;;;;;;5014098;28;20187;-59
2022/11/18 12:36:29;;;;;;;19.17;14.50;;;8.50;93.40;;;;;;5013761;28;20423;-60
2022/11/18 12:38:57;;;;;;;20.63;14.30;;;8.50;92.90;;;;;;5029872;28;20466;-61
2022/11/18 12:44:30;;;;;;;16.03;12.97;;;8.70;93.50;;;;;;5007056;28;20453;-60
2022/11/18 12:47:03;;;;;;;15.97;12.17;;;8.80;92.80;;;;;;5012184;28;20474;-61
2022/11/18 12:49:28;;;;;;;17.13;12.77;;;8.80;93.30;;;;;;5002629;28;20192;-61
2022/11/18 12:52:02;;;;;;;15.33;12.20;;;9.00;93.50;;;;;;5029419;28;20510;-61
2022/11/18 12:54:31;;;;;;;14.80;11.90;;;9.10;93.60;;;;;;5012373;28;20183;-61
2022/11/18 12:57:03;;;;;;;17.07;12.83;;;9.30;93.60;;;;;;5011997;28;20184;-61
2022/11/18 12:59:35;;;;;;;18.93;12.93;;;9.30;92.50;;;;;;5040895;28;20431;-61
2022/11/18 13:02:03;;;;;;;18.20;12.43;;;9.30;92.70;;;;;;5027699;28;20190;-61
2022/11/18 13:04:29;;;;;;;17.63;12.40;;;9.40;92.10;;;;;;5011938;28;20673;-61
2022/11/18 13:06:58;;;;;;;15.33;12.30;;;9.40;92.00;;;;;;5012469;28;20215;-61
2022/11/18 13:09:27;;;;;;;16.27;12.23;;;9.30;90.50;;;;;;5008755;28;20223;-61
2022/11/18 13:12:02;;;;;;;16.30;12.17;;;9.30;90.20;;;;;;5042083;28;20480;-61
2022/11/18 13:17:57;;;;;;;12.10;10.43;;;9.30;91.40;;;;;;5014306;28;20476;-60